sensor_id;sensor_type;location;lat;lon;timestamp;temperature;humidity
59128;DHT22;44912;52.754;5.994;2022-09-29T00:01:55;7.10;99.90
59128;DHT22;44912;52.754;5.994;2022-09-29T00:04:21;7.20;99.90
59128;DHT22;44912;52.754;5.994;2022-09-29T00:06:46;7.20;99.90
59128;DHT22;44912;52.754;5.994;2022-09-29T00:09:12;7.30;99.90
59128;DHT22;44912;52.754;5.994;2022-09-29T00:11:37;7.30;99.90
59128;DHT22;44912;52.754;5.994;2022-09-29T00:14:04;7.40;99.90
59128;DHT22;44912;52.754;5.994;2022-09-29T00:16:29;7.30;99.90
59128;DHT22;44912;52.754;5.994;2022-09-29T00:18:55;7.30;99.90
59128;DHT22;44912;52.754;5.994;2022-09-29T00:21:21;7.10;99.90
59128;DHT22;44912;52.754;5.994;2022-09-29T00:23:48;7.00;99.90
59128;DHT22;44912;52.754;5.994;2022-09-29T00:26:17;7.00;99.90
59128;DHT22;44912;52.754;5.994;2022-09-29T00:28:51;7.00;99.90
59128;DHT22;44912;52.754;5.994;2022-09-29T00:31:18;7.00;99.90
59128;DHT22;44912;52.754;5.994;2022-09-29T00:33:44;6.90;99.90
59128;DHT22;44912;52.754;5.994;2022-09-29T00:36:12;7.00;99.90
59128;DHT22;44912;52.754;5.994;2022-09-29T00:38:38;7.00;99.90
59128;DHT22;44912;52.754;5.994;2022-09-29T00:41:05;7.10;99.90
59128;DHT22;44912;52.754;5.994;2022-09-29T00:43:48;7.10;99.90
59128;DHT22;44912;52.754;5.994;2022-09-29T00:46:16;7.20;99.90
59128;DHT22;44912;52.754;5.994;2022-09-29T00:48:43;7.20;99.90
59128;DHT22;44912;52.754;5.994;2022-09-29T00:51:09;7.20;99.90
59128;DHT22;44912;52.754;5.994;2022-09-29T00:53:35;7.10;99.90
59128;DHT22;44912;52.754;5.994;2022-09-29T00:56:04;6.90;99.90
59128;DHT22;44912;52.754;5.994;2022-09-29T00:58:35;6.80;99.90
59128;DHT22;44912;52.754;5.994;2022-09-29T01:01:03;6.70;99.90
59128;DHT22;44912;52.754;5.994;2022-09-29T01:03:33;6.60;99.90
59128;DHT22;44912;52.754;5.994;2022-09-29T01:06:04;6.50;99.90
59128;DHT22;44912;52.754;5.994;2022-09-29T01:08:45;6.30;99.90
59128;DHT22;44912;52.754;5.994;2022-09-29T01:11:12;6.10;99.90
59128;DHT22;44912;52.754;5.994;2022-09-29T01:13:38;6.10;99.90
59128;DHT22;44912;52.754;5.994;2022-09-29T01:16:05;6.00;99.90
59128;DHT22;44912;52.754;5.994;2022-09-29T01:18:31;6.00;99.90
59128;DHT22;44912;52.754;5.994;2022-09-29T01:21:22;6.10;99.90
59128;DHT22;44912;52.754;5.994;2022-09-29T01:24:31;6.10;99.90
59128;DHT22;44912;52.754;5.994;2022-09-29T01:29:58;6.10;99.90
59128;DHT22;44912;52.754;5.994;2022-09-29T01:32:29;6.10;99.90
59128;DHT22;44912;52.754;5.994;2022-09-29T01:41:09;6.10;99.90
59128;DHT22;44912;52.754;5.994;2022-09-29T01:43:56;6.10;99.90
59128;DHT22;44912;52.754;5.994;2022-09-29T01:46:27;6.20;99.90
59128;DHT22;44912;52.754;5.994;2022-09-29T01:48:56;6.30;99.90
59128;DHT22;44912;52.754;5.994;2022-09-29T01:51:31;6.30;99.90
59128;DHT22;44912;52.754;5.994;2022-09-29T01:54:03;6.40;99.90
59128;DHT22;44912;52.754;5.994;2022-09-29T01:56:47;6.50;99.90
59128;DHT22;44912;52.754;5.994;2022-09-29T02:01:47;6.50;99.90
59128;DHT22;44912;52.754;5.994;2022-09-29T02:04:35;6.50;99.90
59128;DHT22;44912;52.754;5.994;2022-09-29T02:07:06;6.60;99.90
59128;DHT22;44912;52.754;5.994;2022-09-29T02:09:39;6.50;99.90
59128;DHT22;44912;52.754;5.994;2022-09-29T02:12:07;6.50;99.90
59128;DHT22;44912;52.754;5.994;2022-09-29T02:14:39;6.50;99.90
59128;DHT22;44912;52.754;5.994;2022-09-29T02:17:16;6.50;99.90
59128;DHT22;44912;52.754;5.994;2022-09-29T02:19:45;6.40;99.90
59128;DHT22;44912;52.754;5.994;2022-09-29T02:22:11;6.30;99.90
59128;DHT22;44912;52.754;5.994;2022-09-29T02:24:37;6.20;99.90
59128;DHT22;44912;52.754;5.994;2022-09-29T02:27:03;6.10;99.90
59128;DHT22;44912;52.754;5.994;2022-09-29T02:29:29;6.00;99.90
59128;DHT22;44912;52.754;5.994;2022-09-29T02:31:54;6.10;99.90
59128;DHT22;44912;52.754;5.994;2022-09-29T02:34:23;6.10;99.90
59128;DHT22;44912;52.754;5.994;2022-09-29T02:39:47;6.10;99.90
59128;DHT22;44912;52.754;5.994;2022-09-29T02:42:41;6.10;99.90
59128;DHT22;44912;52.754;5.994;2022-09-29T02:45:20;6.20;99.90
59128;DHT22;44912;52.754;5.994;2022-09-29T02:54:00;6.10;99.90
59128;DHT22;44912;52.754;5.994;2022-09-29T02:56:48;6.10;99.90
59128;DHT22;44912;52.754;5.994;2022-09-29T02:59:24;6.20;99.90
59128;DHT22;44912;52.754;5.994;2022-09-29T03:01:54;6.20;99.90
59128;DHT22;44912;52.754;5.994;2022-09-29T03:04:23;6.20;99.90
59128;DHT22;44912;52.754;5.994;2022-09-29T03:06:48;6.30;99.90
59128;DHT22;44912;52.754;5.994;2022-09-29T03:09:14;6.30;99.90
59128;DHT22;44912;52.754;5.994;2022-09-29T03:11:40;6.30;99.90
59128;DHT22;44912;52.754;5.994;2022-09-29T03:14:05;6.40;99.90
59128;DHT22;44912;52.754;5.994;2022-09-29T03:16:32;6.40;99.90
59128;DHT22;44912;52.754;5.994;2022-09-29T03:18:58;6.40;99.90
59128;DHT22;44912;52.754;5.994;2022-09-29T03:21:23;6.40;99.90
59128;DHT22;44912;52.754;5.994;2022-09-29T03:23:49;6.30;99.90
59128;DHT22;44912;52.754;5.994;2022-09-29T03:26:14;6.30;99.90
59128;DHT22;44912;52.754;5.994;2022-09-29T03:28:40;6.20;99.90
59128;DHT22;44912;52.754;5.994;2022-09-29T03:31:08;6.30;99.90
59128;DHT22;44912;52.754;5.994;2022-09-29T03:33:35;6.30;99.90
59128;DHT22;44912;52.754;5.994;2022-09-29T03:36:03;6.30;99.90
59128;DHT22;44912;52.754;5.994;2022-09-29T03:38:30;6.20;99.90
59128;DHT22;44912;52.754;5.994;2022-09-29T03:40:55;6.10;99.90
59128;DHT22;44912;52.754;5.994;2022-09-29T03:43:21;6.00;99.90
59128;DHT22;44912;52.754;5.994;2022-09-29T03:45:48;6.00;99.90
59128;DHT22;44912;52.754;5.994;2022-09-29T03:48:14;5.90;99.90
59128;DHT22;44912;52.754;5.994;2022-09-29T03:50:39;5.90;99.90
59128;DHT22;44912;52.754;5.994;2022-09-29T03:53:05;5.90;99.90
59128;DHT22;44912;52.754;5.994;2022-09-29T03:55:30;5.80;99.90
59128;DHT22;44912;52.754;5.994;2022-09-29T03:57:56;5.80;99.90
59128;DHT22;44912;52.754;5.994;2022-09-29T04:00:21;5.80;99.90
59128;DHT22;44912;52.754;5.994;2022-09-29T04:02:47;5.70;99.90
59128;DHT22;44912;52.754;5.994;2022-09-29T04:05:12;5.70;99.90
59128;DHT22;44912;52.754;5.994;2022-09-29T04:07:38;5.60;99.90
59128;DHT22;44912;52.754;5.994;2022-09-29T04:10:04;5.50;99.90
59128;DHT22;44912;52.754;5.994;2022-09-29T04:12:29;5.50;99.90
59128;DHT22;44912;52.754;5.994;2022-09-29T04:14:55;5.40;99.90
59128;DHT22;44912;52.754;5.994;2022-09-29T04:17:21;5.40;99.90
59128;DHT22;44912;52.754;5.994;2022-09-29T04:19:47;5.40;99.90
59128;DHT22;44912;52.754;5.994;2022-09-29T04:22:14;5.40;99.90
59128;DHT22;44912;52.754;5.994;2022-09-29T04:24:42;5.40;99.90
59128;DHT22;44912;52.754;5.994;2022-09-29T04:27:08;5.40;99.90
59128;DHT22;44912;52.754;5.994;2022-09-29T04:29:33;5.40;99.90
59128;DHT22;44912;52.754;5.994;2022-09-29T04:31:59;5.30;99.90
59128;DHT22;44912;52.754;5.994;2022-09-29T04:34:25;5.30;99.90
59128;DHT22;44912;52.754;5.994;2022-09-29T04:36:50;5.20;99.90
59128;DHT22;44912;52.754;5.994;2022-09-29T04:39:16;5.10;99.90
59128;DHT22;44912;52.754;5.994;2022-09-29T04:41:41;5.20;99.90
59128;DHT22;44912;52.754;5.994;2022-09-29T04:44:07;5.10;99.90
59128;DHT22;44912;52.754;5.994;2022-09-29T04:46:32;5.10;99.90
59128;DHT22;44912;52.754;5.994;2022-09-29T04:48:58;5.10;99.90
59128;DHT22;44912;52.754;5.994;2022-09-29T04:51:24;5.10;99.90
59128;DHT22;44912;52.754;5.994;2022-09-29T04:53:49;5.00;99.90
59128;DHT22;44912;52.754;5.994;2022-09-29T04:56:16;5.00;99.90
59128;DHT22;44912;52.754;5.994;2022-09-29T04:58:41;5.00;99.90
59128;DHT22;44912;52.754;5.994;2022-09-29T05:01:09;4.90;99.90
59128;DHT22;44912;52.754;5.994;2022-09-29T05:03:37;4.90;99.90
59128;DHT22;44912;52.754;5.994;2022-09-29T05:06:02;4.90;99.90
59128;DHT22;44912;52.754;5.994;2022-09-29T05:08:28;4.90;99.90
59128;DHT22;44912;52.754;5.994;2022-09-29T05:10:53;4.90;99.90
59128;DHT22;44912;52.754;5.994;2022-09-29T05:13:19;4.90;99.90
59128;DHT22;44912;52.754;5.994;2022-09-29T05:15:44;4.90;99.90
59128;DHT22;44912;52.754;5.994;2022-09-29T05:18:10;5.00;99.90
59128;DHT22;44912;52.754;5.994;2022-09-29T05:20:35;5.00;99.90
59128;DHT22;44912;52.754;5.994;2022-09-29T05:23:01;5.00;99.90
59128;DHT22;44912;52.754;5.994;2022-09-29T05:25:26;5.00;99.90
59128;DHT22;44912;52.754;5.994;2022-09-29T05:27:53;5.00;99.90
59128;DHT22;44912;52.754;5.994;2022-09-29T05:30:18;5.00;99.90
59128;DHT22;44912;52.754;5.994;2022-09-29T05:32:44;5.00;99.90
59128;DHT22;44912;52.754;5.994;2022-09-29T05:35:10;5.10;99.90
59128;DHT22;44912;52.754;5.994;2022-09-29T05:37:35;5.10;99.90
59128;DHT22;44912;52.754;5.994;2022-09-29T05:40:01;5.10;99.90
59128;DHT22;44912;52.754;5.994;2022-09-29T05:42:26;5.20;99.90
59128;DHT22;44912;52.754;5.994;2022-09-29T05:44:52;5.10;99.90
59128;DHT22;44912;52.754;5.994;2022-09-29T05:47:18;5.10;99.90
59128;DHT22;44912;52.754;5.994;2022-09-29T05:49:44;5.10;99.90
59128;DHT22;44912;52.754;5.994;2022-09-29T05:52:09;5.10;99.90
59128;DHT22;44912;52.754;5.994;2022-09-29T05:54:35;5.10;99.90
59128;DHT22;44912;52.754;5.994;2022-09-29T05:57:00;5.10;99.90
59128;DHT22;44912;52.754;5.994;2022-09-29T05:59:26;5.20;99.90
59128;DHT22;44912;52.754;5.994;2022-09-29T06:01:52;5.10;99.90
59128;DHT22;44912;52.754;5.994;2022-09-29T06:04:17;5.10;99.90
59128;DHT22;44912;52.754;5.994;2022-09-29T06:06:43;5.20;99.90
59128;DHT22;44912;52.754;5.994;2022-09-29T06:09:09;5.20;99.90
59128;DHT22;44912;52.754;5.994;2022-09-29T06:11:34;5.10;99.90
59128;DHT22;44912;52.754;5.994;2022-09-29T06:14:00;5.10;99.90
59128;DHT22;44912;52.754;5.994;2022-09-29T06:16:29;5.10;99.90
59128;DHT22;44912;52.754;5.994;2022-09-29T06:18:55;5.10;99.90
59128;DHT22;44912;52.754;5.994;2022-09-29T06:21:23;5.20;99.90
59128;DHT22;44912;52.754;5.994;2022-09-29T06:23:49;5.30;99.90
59128;DHT22;44912;52.754;5.994;2022-09-29T06:26:17;5.40;99.90
59128;DHT22;44912;52.754;5.994;2022-09-29T06:28:42;5.50;99.90
59128;DHT22;44912;52.754;5.994;2022-09-29T06:31:18;5.50;99.90
59128;DHT22;44912;52.754;5.994;2022-09-29T06:33:45;5.40;99.90
59128;DHT22;44912;52.754;5.994;2022-09-29T06:36:16;5.40;99.90
59128;DHT22;44912;52.754;5.994;2022-09-29T06:39:02;5.40;99.90
59128;DHT22;44912;52.754;5.994;2022-09-29T06:41:28;5.50;99.90
59128;DHT22;44912;52.754;5.994;2022-09-29T06:43:54;5.60;99.90
59128;DHT22;44912;52.754;5.994;2022-09-29T06:46:19;5.60;99.90
59128;DHT22;44912;52.754;5.994;2022-09-29T06:48:45;5.70;99.90
59128;DHT22;44912;52.754;5.994;2022-09-29T06:51:11;5.70;99.90
59128;DHT22;44912;52.754;5.994;2022-09-29T06:53:38;5.70;99.90
59128;DHT22;44912;52.754;5.994;2022-09-29T06:56:03;5.80;99.90
59128;DHT22;44912;52.754;5.994;2022-09-29T06:58:29;5.90;99.90
59128;DHT22;44912;52.754;5.994;2022-09-29T07:00:58;6.00;99.90
59128;DHT22;44912;52.754;5.994;2022-09-29T07:03:24;6.10;99.90
59128;DHT22;44912;52.754;5.994;2022-09-29T07:05:49;6.30;99.90
59128;DHT22;44912;52.754;5.994;2022-09-29T07:08:15;6.30;99.90
59128;DHT22;44912;52.754;5.994;2022-09-29T07:10:40;6.50;99.90
59128;DHT22;44912;52.754;5.994;2022-09-29T07:13:06;6.50;99.90
59128;DHT22;44912;52.754;5.994;2022-09-29T07:15:33;6.70;99.90
59128;DHT22;44912;52.754;5.994;2022-09-29T07:18:00;6.80;99.90
59128;DHT22;44912;52.754;5.994;2022-09-29T07:20:27;6.90;99.90
59128;DHT22;44912;52.754;5.994;2022-09-29T07:22:53;7.00;99.90
59128;DHT22;44912;52.754;5.994;2022-09-29T07:25:19;7.10;99.90
59128;DHT22;44912;52.754;5.994;2022-09-29T07:27:45;7.30;99.90
59128;DHT22;44912;52.754;5.994;2022-09-29T07:30:12;7.40;99.90
59128;DHT22;44912;52.754;5.994;2022-09-29T07:32:37;7.50;99.90
59128;DHT22;44912;52.754;5.994;2022-09-29T07:35:03;7.70;99.90
59128;DHT22;44912;52.754;5.994;2022-09-29T07:37:29;7.90;99.90
59128;DHT22;44912;52.754;5.994;2022-09-29T07:39:55;8.00;99.90
59128;DHT22;44912;52.754;5.994;2022-09-29T07:42:21;8.10;99.90
59128;DHT22;44912;52.754;5.994;2022-09-29T07:44:47;8.30;99.90
59128;DHT22;44912;52.754;5.994;2022-09-29T07:47:13;8.40;99.90
59128;DHT22;44912;52.754;5.994;2022-09-29T07:49:42;8.50;99.90
59128;DHT22;44912;52.754;5.994;2022-09-29T07:52:07;8.60;99.90
59128;DHT22;44912;52.754;5.994;2022-09-29T07:54:33;8.70;99.90
59128;DHT22;44912;52.754;5.994;2022-09-29T07:56:59;8.80;99.90
59128;DHT22;44912;52.754;5.994;2022-09-29T07:59:27;8.80;99.90
59128;DHT22;44912;52.754;5.994;2022-09-29T08:01:52;8.90;99.90
59128;DHT22;44912;52.754;5.994;2022-09-29T08:04:18;9.00;99.90
59128;DHT22;44912;52.754;5.994;2022-09-29T08:06:44;9.00;99.90
59128;DHT22;44912;52.754;5.994;2022-09-29T08:09:11;9.10;99.90
59128;DHT22;44912;52.754;5.994;2022-09-29T08:11:39;9.20;99.90
59128;DHT22;44912;52.754;5.994;2022-09-29T08:14:05;9.30;99.90
59128;DHT22;44912;52.754;5.994;2022-09-29T08:16:31;9.50;99.90
59128;DHT22;44912;52.754;5.994;2022-09-29T08:18:58;9.60;99.90
59128;DHT22;44912;52.754;5.994;2022-09-29T08:21:23;9.70;99.90
59128;DHT22;44912;52.754;5.994;2022-09-29T08:23:49;9.90;99.90
59128;DHT22;44912;52.754;5.994;2022-09-29T08:26:17;10.00;99.90
59128;DHT22;44912;52.754;5.994;2022-09-29T08:28:44;10.10;99.90
59128;DHT22;44912;52.754;5.994;2022-09-29T08:31:18;10.30;99.90
59128;DHT22;44912;52.754;5.994;2022-09-29T08:33:46;10.40;99.90
59128;DHT22;44912;52.754;5.994;2022-09-29T08:36:14;10.60;99.90
59128;DHT22;44912;52.754;5.994;2022-09-29T08:38:48;10.70;99.90
59128;DHT22;44912;52.754;5.994;2022-09-29T08:43:57;10.80;99.90
59128;DHT22;44912;52.754;5.994;2022-09-29T08:46:34;10.80;99.90
59128;DHT22;44912;52.754;5.994;2022-09-29T08:49:09;11.00;99.90
59128;DHT22;44912;52.754;5.994;2022-09-29T08:51:44;11.00;99.90
59128;DHT22;44912;52.754;5.994;2022-09-29T08:54:33;11.10;99.90
59128;DHT22;44912;52.754;5.994;2022-09-29T08:57:04;11.20;99.90
59128;DHT22;44912;52.754;5.994;2022-09-29T08:59:30;11.40;99.90
59128;DHT22;44912;52.754;5.994;2022-09-29T09:02:22;11.60;99.90
59128;DHT22;44912;52.754;5.994;2022-09-29T09:07:44;11.80;99.90
59128;DHT22;44912;52.754;5.994;2022-09-29T09:10:30;11.90;99.90
59128;DHT22;44912;52.754;5.994;2022-09-29T09:16:19;12.00;99.90
59128;DHT22;44912;52.754;5.994;2022-09-29T09:19:02;12.20;99.90
59128;DHT22;44912;52.754;5.994;2022-09-29T09:21:43;12.30;99.90
59128;DHT22;44912;52.754;5.994;2022-09-29T09:26:43;12.60;99.90
59128;DHT22;44912;52.754;5.994;2022-09-29T09:29:32;12.80;99.90
59128;DHT22;44912;52.754;5.994;2022-09-29T09:32:04;12.90;99.90
59128;DHT22;44912;52.754;5.994;2022-09-29T09:37:07;13.20;99.90
59128;DHT22;44912;52.754;5.994;2022-09-29T09:39:37;13.40;99.90
59128;DHT22;44912;52.754;5.994;2022-09-29T09:42:14;13.60;99.90
59128;DHT22;44912;52.754;5.994;2022-09-29T09:44:46;13.80;99.90
59128;DHT22;44912;52.754;5.994;2022-09-29T09:47:30;14.10;99.90
59128;DHT22;44912;52.754;5.994;2022-09-29T09:50:13;14.30;99.90
59128;DHT22;44912;52.754;5.994;2022-09-29T09:53:02;14.40;99.90
59128;DHT22;44912;52.754;5.994;2022-09-29T09:55:29;14.40;99.90
59128;DHT22;44912;52.754;5.994;2022-09-29T10:00:58;14.10;99.90
59128;DHT22;44912;52.754;5.994;2022-09-29T10:03:26;14.10;99.90
59128;DHT22;44912;52.754;5.994;2022-09-29T10:05:52;14.10;99.90
59128;DHT22;44912;52.754;5.994;2022-09-29T10:08:25;14.00;99.90
59128;DHT22;44912;52.754;5.994;2022-09-29T10:10:52;13.90;99.90
59128;DHT22;44912;52.754;5.994;2022-09-29T10:13:18;13.80;99.90
59128;DHT22;44912;52.754;5.994;2022-09-29T10:18:39;13.90;99.90
59128;DHT22;44912;52.754;5.994;2022-09-29T10:21:19;14.00;99.90
59128;DHT22;44912;52.754;5.994;2022-09-29T10:23:52;14.10;99.90
59128;DHT22;44912;52.754;5.994;2022-09-29T10:26:22;14.10;99.90
59128;DHT22;44912;52.754;5.994;2022-09-29T10:28:53;14.20;99.90
59128;DHT22;44912;52.754;5.994;2022-09-29T10:31:39;14.50;99.90
59128;DHT22;44912;52.754;5.994;2022-09-29T10:34:15;14.60;99.90
59128;DHT22;44912;52.754;5.994;2022-09-29T10:36:52;14.50;99.90
59128;DHT22;44912;52.754;5.994;2022-09-29T10:39:33;14.60;99.90
59128;DHT22;44912;52.754;5.994;2022-09-29T10:42:02;14.80;99.90
59128;DHT22;44912;52.754;5.994;2022-09-29T10:44:32;14.90;99.90
59128;DHT22;44912;52.754;5.994;2022-09-29T10:46:58;15.10;99.90
59128;DHT22;44912;52.754;5.994;2022-09-29T10:49:26;15.50;99.90
59128;DHT22;44912;52.754;5.994;2022-09-29T10:54:27;16.00;99.90
59128;DHT22;44912;52.754;5.994;2022-09-29T10:56:54;16.20;99.90
59128;DHT22;44912;52.754;5.994;2022-09-29T10:59:21;16.40;99.90
59128;DHT22;44912;52.754;5.994;2022-09-29T11:01:58;16.50;99.90
59128;DHT22;44912;52.754;5.994;2022-09-29T11:04:27;16.70;99.90
59128;DHT22;44912;52.754;5.994;2022-09-29T11:06:54;16.80;99.90
59128;DHT22;44912;52.754;5.994;2022-09-29T11:17:38;17.10;99.90
59128;DHT22;44912;52.754;5.994;2022-09-29T11:20:09;17.00;99.90
59128;DHT22;44912;52.754;5.994;2022-09-29T11:25:25;17.00;99.90
59128;DHT22;44912;52.754;5.994;2022-09-29T11:28:32;16.80;99.90
59128;DHT22;44912;52.754;5.994;2022-09-29T11:39:02;16.20;99.90
59128;DHT22;44912;52.754;5.994;2022-09-29T11:58:09;15.50;99.90
59128;DHT22;44912;52.754;5.994;2022-09-29T12:09:28;14.90;99.90
59128;DHT22;44912;52.754;5.994;2022-09-29T12:17:15;14.40;99.90
59128;DHT22;44912;52.754;5.994;2022-09-29T12:19:43;14.40;99.90
59128;DHT22;44912;52.754;5.994;2022-09-29T12:22:14;14.30;99.90
59128;DHT22;44912;52.754;5.994;2022-09-29T12:24:49;14.30;99.90
59128;DHT22;44912;52.754;5.994;2022-09-29T12:27:35;14.30;99.90
59128;DHT22;44912;52.754;5.994;2022-09-29T12:32:53;14.60;99.90
59128;DHT22;44912;52.754;5.994;2022-09-29T12:38:33;14.80;99.90
59128;DHT22;44912;52.754;5.994;2022-09-29T12:41:21;14.90;99.90
59128;DHT22;44912;52.754;5.994;2022-09-29T12:46:55;15.40;99.90
59128;DHT22;44912;52.754;5.994;2022-09-29T12:49:38;15.60;99.90
59128;DHT22;44912;52.754;5.994;2022-09-29T12:52:21;15.70;99.90
59128;DHT22;44912;52.754;5.994;2022-09-29T12:54:54;15.70;99.90
59128;DHT22;44912;52.754;5.994;2022-09-29T12:57:27;15.80;99.90
59128;DHT22;44912;52.754;5.994;2022-09-29T13:16:12;16.10;99.90
59128;DHT22;44912;52.754;5.994;2022-09-29T13:21:53;15.90;99.90
59128;DHT22;44912;52.754;5.994;2022-09-29T13:27:30;15.30;99.90
59128;DHT22;44912;52.754;5.994;2022-09-29T13:30:10;15.20;99.90
59128;DHT22;44912;52.754;5.994;2022-09-29T13:32:53;15.20;99.90
59128;DHT22;44912;52.754;5.994;2022-09-29T13:35:22;15.10;99.90
59128;DHT22;44912;52.754;5.994;2022-09-29T13:37:54;15.20;99.90
59128;DHT22;44912;52.754;5.994;2022-09-29T13:40:26;15.30;99.90
59128;DHT22;44912;52.754;5.994;2022-09-29T13:43:02;15.50;99.90
59128;DHT22;44912;52.754;5.994;2022-09-29T13:50:55;15.50;99.90
59128;DHT22;44912;52.754;5.994;2022-09-29T13:56:10;15.60;99.90
59128;DHT22;44912;52.754;5.994;2022-09-29T14:01:10;15.60;99.90
59128;DHT22;44912;52.754;5.994;2022-09-29T14:03:41;15.70;99.90
59128;DHT22;44912;52.754;5.994;2022-09-29T14:06:18;15.80;99.90
59128;DHT22;44912;52.754;5.994;2022-09-29T14:08:49;15.90;99.90
59128;DHT22;44912;52.754;5.994;2022-09-29T14:11:32;16.10;99.90
59128;DHT22;44912;52.754;5.994;2022-09-29T14:14:24;16.10;99.90
59128;DHT22;44912;52.754;5.994;2022-09-29T14:17:42;15.90;99.90
59128;DHT22;44912;52.754;5.994;2022-09-29T14:19:59;15.80;99.90
59128;DHT22;44912;52.754;5.994;2022-09-29T14:27:45;16.00;99.90
59128;DHT22;44912;52.754;5.994;2022-09-29T14:30:20;16.10;99.90
59128;DHT22;44912;52.754;5.994;2022-09-29T14:33:13;16.30;99.90
59128;DHT22;44912;52.754;5.994;2022-09-29T14:36:19;16.30;99.90
59128;DHT22;44912;52.754;5.994;2022-09-29T14:38:53;16.20;99.90
59128;DHT22;44912;52.754;5.994;2022-09-29T14:41:30;16.20;99.90
59128;DHT22;44912;52.754;5.994;2022-09-29T14:44:06;16.20;99.90
59128;DHT22;44912;52.754;5.994;2022-09-29T14:46:43;16.20;99.90
59128;DHT22;44912;52.754;5.994;2022-09-29T14:49:45;16.10;99.90
59128;DHT22;44912;52.754;5.994;2022-09-29T15:03:49;15.40;99.90
59128;DHT22;44912;52.754;5.994;2022-09-29T15:06:21;15.30;99.90
59128;DHT22;44912;52.754;5.994;2022-09-29T15:08:59;15.30;99.90
59128;DHT22;44912;52.754;5.994;2022-09-29T15:11:40;15.30;99.90
59128;DHT22;44912;52.754;5.994;2022-09-29T15:17:07;15.40;99.90
59128;DHT22;44912;52.754;5.994;2022-09-29T15:25:31;15.20;99.90
59128;DHT22;44912;52.754;5.994;2022-09-29T15:28:01;15.20;99.90
59128;DHT22;44912;52.754;5.994;2022-09-29T15:30:29;15.30;99.90
59128;DHT22;44912;52.754;5.994;2022-09-29T15:33:15;15.40;99.90
59128;DHT22;44912;52.754;5.994;2022-09-29T15:35:44;15.60;99.90
59128;DHT22;44912;52.754;5.994;2022-09-29T15:40:59;15.60;99.90
59128;DHT22;44912;52.754;5.994;2022-09-29T15:43:30;15.70;99.90
59128;DHT22;44912;52.754;5.994;2022-09-29T15:51:27;15.90;99.90
59128;DHT22;44912;52.754;5.994;2022-09-29T15:53:53;15.90;99.90
59128;DHT22;44912;52.754;5.994;2022-09-29T15:56:20;15.90;99.90
59128;DHT22;44912;52.754;5.994;2022-09-29T15:58:46;15.90;99.90
59128;DHT22;44912;52.754;5.994;2022-09-29T16:01:13;15.90;99.90
59128;DHT22;44912;52.754;5.994;2022-09-29T16:03:47;16.00;99.90
59128;DHT22;44912;52.754;5.994;2022-09-29T16:06:32;16.20;99.90
59128;DHT22;44912;52.754;5.994;2022-09-29T16:09:04;16.30;99.90
59128;DHT22;44912;52.754;5.994;2022-09-29T16:11:34;16.40;99.90
59128;DHT22;44912;52.754;5.994;2022-09-29T16:14:05;16.60;99.90
59128;DHT22;44912;52.754;5.994;2022-09-29T16:16:39;17.10;99.90
59128;DHT22;44912;52.754;5.994;2022-09-29T16:19:21;17.40;99.90
59128;DHT22;44912;52.754;5.994;2022-09-29T16:21:59;17.70;99.90
59128;DHT22;44912;52.754;5.994;2022-09-29T16:24:29;17.80;99.90
59128;DHT22;44912;52.754;5.994;2022-09-29T16:26:56;17.80;99.90
59128;DHT22;44912;52.754;5.994;2022-09-29T16:29:26;17.50;99.90
59128;DHT22;44912;52.754;5.994;2022-09-29T16:31:52;17.20;99.90
59128;DHT22;44912;52.754;5.994;2022-09-29T16:36:48;16.70;99.90
59128;DHT22;44912;52.754;5.994;2022-09-29T16:39:15;16.50;99.90
59128;DHT22;44912;52.754;5.994;2022-09-29T16:41:42;16.50;99.90
59128;DHT22;44912;52.754;5.994;2022-09-29T16:44:17;16.40;99.90
59128;DHT22;44912;52.754;5.994;2022-09-29T16:49:27;16.10;99.90
59128;DHT22;44912;52.754;5.994;2022-09-29T16:51:56;15.90;99.90
59128;DHT22;44912;52.754;5.994;2022-09-29T16:54:27;15.70;99.90
59128;DHT22;44912;52.754;5.994;2022-09-29T16:57:17;15.70;99.90
59128;DHT22;44912;52.754;5.994;2022-09-29T16:59:48;15.80;99.90
59128;DHT22;44912;52.754;5.994;2022-09-29T17:02:14;15.60;99.90
59128;DHT22;44912;52.754;5.994;2022-09-29T17:04:40;15.40;99.90
59128;DHT22;44912;52.754;5.994;2022-09-29T17:07:07;15.10;99.90
59128;DHT22;44912;52.754;5.994;2022-09-29T17:09:34;14.80;99.90
59128;DHT22;44912;52.754;5.994;2022-09-29T17:11:59;14.60;99.90
59128;DHT22;44912;52.754;5.994;2022-09-29T17:14:25;14.60;99.90
59128;DHT22;44912;52.754;5.994;2022-09-29T17:16:54;14.40;99.90
59128;DHT22;44912;52.754;5.994;2022-09-29T17:19:20;14.30;99.90
59128;DHT22;44912;52.754;5.994;2022-09-29T17:21:46;14.20;99.90
59128;DHT22;44912;52.754;5.994;2022-09-29T17:24:12;14.10;99.90
59128;DHT22;44912;52.754;5.994;2022-09-29T17:26:40;13.90;99.90
59128;DHT22;44912;52.754;5.994;2022-09-29T17:29:25;13.90;99.90
59128;DHT22;44912;52.754;5.994;2022-09-29T17:31:50;13.70;99.90
59128;DHT22;44912;52.754;5.994;2022-09-29T17:34:16;13.60;99.90
59128;DHT22;44912;52.754;5.994;2022-09-29T17:36:45;13.50;99.90
59128;DHT22;44912;52.754;5.994;2022-09-29T17:39:11;13.50;99.90
59128;DHT22;44912;52.754;5.994;2022-09-29T17:41:36;13.40;99.90
59128;DHT22;44912;52.754;5.994;2022-09-29T17:44:02;13.40;99.90
59128;DHT22;44912;52.754;5.994;2022-09-29T17:46:30;13.40;99.90
59128;DHT22;44912;52.754;5.994;2022-09-29T17:48:56;13.40;99.90
59128;DHT22;44912;52.754;5.994;2022-09-29T17:51:21;13.30;99.90
59128;DHT22;44912;52.754;5.994;2022-09-29T17:53:47;13.30;99.90
59128;DHT22;44912;52.754;5.994;2022-09-29T17:56:20;13.20;99.90
59128;DHT22;44912;52.754;5.994;2022-09-29T17:58:50;13.20;99.90
59128;DHT22;44912;52.754;5.994;2022-09-29T18:01:22;13.10;99.90
59128;DHT22;44912;52.754;5.994;2022-09-29T18:03:48;13.00;99.90
59128;DHT22;44912;52.754;5.994;2022-09-29T18:06:21;12.90;99.90
59128;DHT22;44912;52.754;5.994;2022-09-29T18:08:50;12.80;99.90
59128;DHT22;44912;52.754;5.994;2022-09-29T18:11:17;12.80;99.90
59128;DHT22;44912;52.754;5.994;2022-09-29T18:13:43;12.70;99.90
59128;DHT22;44912;52.754;5.994;2022-09-29T18:16:14;12.70;99.90
59128;DHT22;44912;52.754;5.994;2022-09-29T18:18:41;12.60;99.90
59128;DHT22;44912;52.754;5.994;2022-09-29T18:21:06;12.60;99.90
59128;DHT22;44912;52.754;5.994;2022-09-29T18:23:32;12.50;99.90
59128;DHT22;44912;52.754;5.994;2022-09-29T18:26:00;12.40;99.90
59128;DHT22;44912;52.754;5.994;2022-09-29T18:28:33;12.30;99.90
59128;DHT22;44912;52.754;5.994;2022-09-29T18:31:37;12.10;99.90
59128;DHT22;44912;52.754;5.994;2022-09-29T18:33:56;12.00;99.90
59128;DHT22;44912;52.754;5.994;2022-09-29T18:36:22;11.80;99.90
59128;DHT22;44912;52.754;5.994;2022-09-29T18:38:48;11.80;99.90
59128;DHT22;44912;52.754;5.994;2022-09-29T18:41:17;11.80;99.90
59128;DHT22;44912;52.754;5.994;2022-09-29T18:43:44;11.70;99.90
59128;DHT22;44912;52.754;5.994;2022-09-29T18:46:10;11.60;99.90
59128;DHT22;44912;52.754;5.994;2022-09-29T18:48:37;11.60;99.90
59128;DHT22;44912;52.754;5.994;2022-09-29T18:51:03;11.60;99.90